createdAt,value
2024-02-13T00:01:40.310Z,1.00
2024-02-13T00:06:43.018Z,1.45
2024-02-13T00:11:48.005Z,1.65
2024-02-13T00:16:50.046Z,1.38
2024-02-13T00:21:52.734Z,1.60
2024-02-13T00:26:55.242Z,1.58
2024-02-13T00:31:57.139Z,1.50
2024-02-13T00:37:02.330Z,1.52
2024-02-13T00:42:06.316Z,1.60
2024-02-13T00:47:09.465Z,1.40
2024-02-13T00:52:11.233Z,1.80
2024-02-13T00:57:13.009Z,1.33
2024-02-13T01:02:18.355Z,1.35
2024-02-13T01:07:20.158Z,1.33
2024-02-13T01:12:21.846Z,1.30
2024-02-13T01:17:23.651Z,1.35
2024-02-13T01:22:25.491Z,1.40
2024-02-13T01:27:27.565Z,1.00
2024-02-13T01:32:29.526Z,0.90
2024-02-13T01:37:31.352Z,1.48
2024-02-13T01:42:38.755Z,1.77
2024-02-13T01:47:43.868Z,1.02
2024-02-13T01:52:47.127Z,1.65
2024-02-13T01:57:50.116Z,1.15
2024-02-13T02:02:52.155Z,1.35
2024-02-13T02:07:54.933Z,1.50
2024-02-13T02:12:56.786Z,1.25
2024-02-13T02:17:58.592Z,1.20
2024-02-13T02:23:00.521Z,1.65
2024-02-13T02:28:02.583Z,1.25
2024-02-13T02:33:04.764Z,1.65
2024-02-13T02:38:06.593Z,1.35
2024-02-13T02:43:08.489Z,1.55
2024-02-13T02:48:10.454Z,1.40
2024-02-13T02:53:12.274Z,1.48
2024-02-13T02:58:14.939Z,1.23
2024-02-13T03:03:17.844Z,1.35
2024-02-13T03:08:19.618Z,1.42
2024-02-13T03:13:22.525Z,1.67
2024-02-13T03:18:25.879Z,1.52
2024-02-13T03:23:27.866Z,1.73
2024-02-13T03:28:30.171Z,1.83
2024-02-13T03:33:32.406Z,1.65
2024-02-13T03:38:34.489Z,1.92
2024-02-13T03:43:37.904Z,1.98
2024-02-13T03:48:39.788Z,1.17
2024-02-13T03:53:41.562Z,1.38
2024-02-13T03:58:43.326Z,1.25
2024-02-13T04:03:45.064Z,1.42
2024-02-13T04:08:47.149Z,1.35
2024-02-13T04:13:49.009Z,1.42
2024-02-13T04:18:51.097Z,1.73
2024-02-13T04:23:53.700Z,1.45
2024-02-13T04:28:55.820Z,1.35
2024-02-13T04:33:57.817Z,1.45
2024-02-13T04:38:59.767Z,1.33
2024-02-13T04:44:01.667Z,1.30
2024-02-13T04:49:03.520Z,1.27
2024-02-13T04:54:06.272Z,1.20
2024-02-13T04:59:09.399Z,1.02
2024-02-13T05:04:17.651Z,1.33
2024-02-13T05:09:20.023Z,1.20
2024-02-13T05:14:22.721Z,1.13
2024-02-13T05:19:27.398Z,1.02
2024-02-13T05:24:30.254Z,1.08
2024-02-13T05:29:32.127Z,0.82
2024-02-13T05:34:34.499Z,1.13
2024-02-13T05:39:36.238Z,0.85
2024-02-13T05:44:37.975Z,0.95
2024-02-13T05:49:39.907Z,1.23
2024-02-13T05:54:43.963Z,1.08
2024-02-13T05:59:45.862Z,1.13
2024-02-13T06:04:48.040Z,0.95
2024-02-13T06:09:50.116Z,1.17
2024-02-13T06:14:52.113Z,1.38
2024-02-13T06:19:59.830Z,0.95
2024-02-13T06:25:02.933Z,1.10
2024-02-13T06:30:05.139Z,0.98
2024-02-13T06:35:07.225Z,1.17
2024-02-13T06:40:09.647Z,1.10
2024-02-13T06:45:11.991Z,1.02
2024-02-13T06:50:14.538Z,1.13
2024-02-13T06:55:17.388Z,1.08
2024-02-13T07:00:20.776Z,1.33
2024-02-13T07:05:22.686Z,1.20
2024-02-13T07:10:24.626Z,1.08
2024-02-13T07:15:26.596Z,1.20
2024-02-13T07:20:28.914Z,1.13
2024-02-13T07:25:31.220Z,0.90
2024-02-13T07:30:33.049Z,1.27
2024-02-13T07:35:34.869Z,1.50
2024-02-13T07:40:36.583Z,1.30
2024-02-13T07:45:38.281Z,1.08
2024-02-13T07:50:40.216Z,1.30
2024-02-13T07:55:42.127Z,1.13
2024-02-13T08:00:45.388Z,1.15
2024-02-13T08:05:47.396Z,1.25
2024-02-13T08:10:49.396Z,1.60
2024-02-13T08:15:51.157Z,1.17
2024-02-13T08:20:53.264Z,1.42
2024-02-13T08:25:57.471Z,1.15
2024-02-13T08:30:59.274Z,1.40
2024-02-13T08:36:01.088Z,1.17
2024-02-13T08:41:02.917Z,1.33
2024-02-13T08:46:04.844Z,1.23
2024-02-13T08:51:06.667Z,1.48
2024-02-13T08:56:08.409Z,1.58
2024-02-13T09:01:10.300Z,1.15
2024-02-13T09:06:13.452Z,1.52
2024-02-13T09:11:15.497Z,1.25
2024-02-13T09:16:17.421Z,1.05
2024-02-13T09:21:19.309Z,1.00
2024-02-13T09:26:21.670Z,1.23
2024-02-13T09:31:23.672Z,0.82
2024-02-13T09:36:25.497Z,1.25
2024-02-13T09:41:27.985Z,1.08
2024-02-13T09:46:32.122Z,1.10
2024-02-13T09:51:34.698Z,0.95
2024-02-13T09:56:37.147Z,1.00
2024-02-13T10:01:39.326Z,0.85
2024-02-13T10:06:41.645Z,1.10
2024-02-13T10:11:44.139Z,1.17
2024-02-13T10:16:46.349Z,1.20
2024-02-13T10:21:54.227Z,0.88
2024-02-13T10:26:56.819Z,0.98
2024-02-13T10:32:08.396Z,1.00
2024-02-13T10:37:10.246Z,0.95
2024-02-13T10:42:16.574Z,0.93
2024-02-13T10:47:20.235Z,0.95
2024-02-13T10:52:22.681Z,0.85
2024-02-13T10:57:24.675Z,1.17
2024-02-13T11:02:27.952Z,0.98
2024-02-13T11:07:29.734Z,0.80
2024-02-13T11:12:31.621Z,1.08
2024-02-13T11:17:36.073Z,0.80
2024-02-13T11:22:44.105Z,1.08
2024-02-13T11:27:48.280Z,1.05
2024-02-13T11:32:51.288Z,1.58
2024-02-13T11:37:53.072Z,1.10
2024-02-13T11:42:55.228Z,1.15
2024-02-13T11:47:58.101Z,1.02
2024-02-13T11:52:59.941Z,1.10
2024-02-13T11:58:01.806Z,1.13
2024-02-13T12:03:05.854Z,1.17
2024-02-13T12:08:09.453Z,1.20
2024-02-13T12:13:12.911Z,1.08
2024-02-13T12:18:18.880Z,1.10
2024-02-13T12:23:21.628Z,1.17
2024-02-13T12:28:23.735Z,1.13
2024-02-13T12:33:28.400Z,0.82
2024-02-13T12:38:31.796Z,1.25
2024-02-13T12:43:34.007Z,1.05
2024-02-13T12:48:44.167Z,1.27
2024-02-13T12:58:53.043Z,1.00
2024-02-13T13:03:59.451Z,1.05
2024-02-13T13:09:08.926Z,1.05
2024-02-13T13:14:14.451Z,0.77
2024-02-13T13:19:16.552Z,1.10
2024-02-13T13:24:18.601Z,0.82
2024-02-13T13:29:21.076Z,1.15
2024-02-13T13:34:25.308Z,0.80
2024-02-13T13:39:30.704Z,0.63
2024-02-13T13:44:32.938Z,0.93
2024-02-13T13:49:36.551Z,0.93
2024-02-13T13:54:38.470Z,0.82
2024-02-13T13:59:40.284Z,1.30
2024-02-13T14:04:42.222Z,0.80
2024-02-13T14:09:44.056Z,1.15
2024-02-13T14:14:46.680Z,0.77
2024-02-13T14:19:49.113Z,0.88
2024-02-13T14:24:53.561Z,1.15
2024-02-13T14:29:55.543Z,1.30
2024-02-13T14:34:57.402Z,1.08
2024-02-13T14:39:59.229Z,1.13
2024-02-13T14:45:06.667Z,1.17
2024-02-13T14:50:15.950Z,0.85
2024-02-13T14:55:18.414Z,1.03
2024-02-13T15:00:22.070Z,1.13
2024-02-13T15:05:23.900Z,0.80
2024-02-13T15:10:30.112Z,0.75
2024-02-13T15:15:32.946Z,0.55
2024-02-13T15:20:36.700Z,1.05
2024-02-13T15:25:39.288Z,0.80
2024-02-13T15:30:40.984Z,1.05
2024-02-13T15:35:52.131Z,0.85
2024-02-13T15:41:12.367Z,1.08
2024-02-13T15:46:32.946Z,0.85
2024-02-13T15:51:34.661Z,1.10
2024-02-13T15:56:36.476Z,1.10
2024-02-13T16:01:38.254Z,1.08
2024-02-13T16:06:40.596Z,1.15
2024-02-13T16:11:43.488Z,1.10
2024-02-13T16:16:46.756Z,1.20
2024-02-13T16:21:50.140Z,2.03
2024-02-13T16:26:54.823Z,2.20
2024-02-13T16:31:56.765Z,1.95
2024-02-13T16:36:59.047Z,1.95
2024-02-13T16:42:00.828Z,1.85
2024-02-13T16:47:08.940Z,1.67
2024-02-13T16:52:10.687Z,1.63
2024-02-13T16:57:12.579Z,1.85
2024-02-13T17:02:24.007Z,1.90
2024-02-13T17:07:26.013Z,2.97
2024-02-13T17:12:27.815Z,2.67
2024-02-13T17:17:29.590Z,2.63
2024-02-13T17:22:35.637Z,2.38
2024-02-13T17:27:38.946Z,2.08
2024-02-13T17:32:41.280Z,2.08
2024-02-13T17:37:43.133Z,1.70
2024-02-13T17:42:45.460Z,2.15
2024-02-13T17:47:47.301Z,2.10
2024-02-13T17:52:49.153Z,2.40
2024-02-13T17:57:50.887Z,2.42
2024-02-13T18:02:53.198Z,1.77
2024-02-13T18:07:55.137Z,1.88
2024-02-13T18:12:59.766Z,3.35
2024-02-13T18:18:01.695Z,1.83
2024-02-13T18:23:05.541Z,1.88
2024-02-13T18:28:09.934Z,2.63
2024-02-13T18:33:13.618Z,1.65
2024-02-13T18:38:16.287Z,2.00
2024-02-13T18:43:18.187Z,2.13
2024-02-13T18:48:20.164Z,2.13
2024-02-13T18:53:24.405Z,2.72
2024-02-13T18:58:26.362Z,3.08
2024-02-13T19:03:28.134Z,3.25
2024-02-13T19:08:33.619Z,2.38
2024-02-13T19:13:35.345Z,2.65
2024-02-13T19:18:38.856Z,2.80
2024-02-13T19:23:40.761Z,3.30
2024-02-13T19:28:42.558Z,1.55
2024-02-13T19:33:44.490Z,1.90
2024-02-13T19:38:46.398Z,1.85
2024-02-13T19:43:49.770Z,2.33
2024-02-13T19:48:52.373Z,2.95
2024-02-13T19:53:54.620Z,2.13
2024-02-13T19:58:56.539Z,3.10
2024-02-13T20:03:58.264Z,2.42
2024-02-13T20:09:02.114Z,1.55
2024-02-13T20:14:04.480Z,2.03
2024-02-13T20:19:06.544Z,1.92
2024-02-13T20:24:09.618Z,2.22
2024-02-13T20:29:11.579Z,2.75
2024-02-13T20:34:13.589Z,1.77
2024-02-13T20:39:15.453Z,2.30
2024-02-13T20:44:17.207Z,1.55
2024-02-13T20:49:19.084Z,2.45
2024-02-13T20:54:21.092Z,2.45
2024-02-13T20:59:22.946Z,2.60
2024-02-13T21:04:29.642Z,1.98
2024-02-13T21:09:31.448Z,2.35
2024-02-13T21:14:34.195Z,1.73
2024-02-13T21:19:36.355Z,2.13
2024-02-13T21:24:38.601Z,1.70
2024-02-13T21:29:40.479Z,1.27
2024-02-13T21:34:43.518Z,1.77
2024-02-13T21:39:45.321Z,2.53
2024-02-13T21:44:47.096Z,1.77
2024-02-13T21:49:49.095Z,1.90
2024-02-13T21:54:51.650Z,1.42
2024-02-13T21:59:53.717Z,2.40
2024-02-13T22:04:55.514Z,2.03
2024-02-13T22:09:57.784Z,1.70
2024-02-13T22:14:59.792Z,1.80
2024-02-13T22:20:01.631Z,2.58
2024-02-13T22:25:06.685Z,1.67
2024-02-13T22:30:08.732Z,1.67
2024-02-13T22:35:10.636Z,1.88
2024-02-13T22:40:12.986Z,2.72
2024-02-13T22:45:14.856Z,2.05
2024-02-13T22:50:16.684Z,2.22
2024-02-13T22:55:18.616Z,1.45
2024-02-13T23:00:40.272Z,2.08
2024-02-13T23:05:54.965Z,1.38
2024-02-13T23:10:56.918Z,1.35
2024-02-13T23:15:58.693Z,1.67
2024-02-13T23:21:00.623Z,1.92
2024-02-13T23:26:02.844Z,1.85
2024-02-13T23:31:05.906Z,2.05
2024-02-13T23:36:10.180Z,2.30
2024-02-13T23:41:12.091Z,1.30
2024-02-13T23:46:13.950Z,1.70
2024-02-13T23:51:17.325Z,1.63
2024-02-13T23:56:19.411Z,1.92
